createdAt,value
2018-12-17T00:00:13.354Z,0
2018-12-17T00:01:15.373Z,0
2018-12-17T00:02:17.461Z,0
2018-12-17T00:03:19.470Z,0
2018-12-17T00:04:21.501Z,0
2018-12-17T00:05:23.524Z,0
2018-12-17T00:06:25.547Z,0
2018-12-17T00:07:27.550Z,0
2018-12-17T00:08:32.041Z,0
2018-12-17T00:09:34.270Z,0
2018-12-17T00:10:36.282Z,0
2018-12-17T00:11:38.303Z,0
2018-12-17T00:12:40.340Z,0
2018-12-17T00:13:42.357Z,0
2018-12-17T00:14:44.386Z,0
2018-12-17T00:15:46.408Z,0
2018-12-17T00:16:48.499Z,0
2018-12-17T00:17:50.798Z,0
2018-12-17T00:18:52.834Z,0
2018-12-17T00:19:54.837Z,0
2018-12-17T00:20:56.863Z,0
2018-12-17T00:21:58.883Z,0
2018-12-17T00:23:00.902Z,0
2018-12-17T00:24:03.522Z,0
2018-12-17T00:25:05.613Z,0
2018-12-17T00:26:07.630Z,0
2018-12-17T00:27:09.645Z,0
2018-12-17T00:28:11.673Z,0
2018-12-17T00:29:13.971Z,0
2018-12-17T00:30:16.063Z,0
2018-12-17T00:31:18.392Z,0
2018-12-17T00:32:20.395Z,0
2018-12-17T00:33:22.425Z,0
2018-12-17T00:34:24.524Z,0
2018-12-17T00:35:26.629Z,0
2018-12-17T00:36:28.636Z,0
2018-12-17T00:37:30.661Z,0
2018-12-17T00:38:32.684Z,0
2018-12-17T00:39:34.695Z,0
2018-12-17T00:40:36.729Z,0
2018-12-17T00:41:38.741Z,0
2018-12-17T00:42:40.795Z,0
2018-12-17T00:43:42.805Z,0
2018-12-17T00:44:46.758Z,0
2018-12-17T00:45:48.785Z,0
2018-12-17T00:46:50.811Z,0
2018-12-17T00:47:52.838Z,0
2018-12-17T00:48:54.856Z,0
2018-12-17T00:49:56.868Z,0
2018-12-17T00:50:59.277Z,0
2018-12-17T00:52:01.580Z,0
2018-12-17T00:53:03.593Z,0
2018-12-17T00:54:05.616Z,0
2018-12-17T00:55:07.633Z,0
2018-12-17T00:56:09.645Z,0
2018-12-17T00:57:11.693Z,0
2018-12-17T00:58:15.237Z,0
2018-12-17T00:59:17.387Z,0
2018-12-17T01:00:19.413Z,0
2018-12-17T01:01:21.445Z,0
2018-12-17T01:02:23.463Z,0
2018-12-17T01:03:25.483Z,0
2018-12-17T01:04:27.512Z,0
2018-12-17T01:05:29.796Z,0
2018-12-17T01:06:31.827Z,0
2018-12-17T01:07:33.843Z,0
2018-12-17T01:08:35.869Z,0
2018-12-17T01:09:38.164Z,0
2018-12-17T01:10:40.189Z,0
2018-12-17T01:11:42.209Z,0
2018-12-17T01:12:44.222Z,0
2018-12-17T01:13:46.256Z,0
2018-12-17T01:14:48.270Z,0
2018-12-17T01:15:50.290Z,0
2018-12-17T01:16:52.320Z,0
2018-12-17T01:17:54.345Z,0
2018-12-17T01:18:56.640Z,0
2018-12-17T01:19:58.659Z,0
2018-12-17T01:21:00.667Z,0
2018-12-17T01:22:03.355Z,0
2018-12-17T01:23:05.396Z,0
2018-12-17T01:24:07.421Z,0
2018-12-17T01:25:09.431Z,0
2018-12-17T01:26:11.461Z,0
2018-12-17T01:27:13.538Z,0
2018-12-17T01:28:21.917Z,0
2018-12-17T01:29:24.389Z,0
2018-12-17T01:30:26.435Z,0
2018-12-17T01:31:28.467Z,0
2018-12-17T01:32:30.531Z,0
2018-12-17T01:33:32.559Z,0
2018-12-17T01:34:34.568Z,0
2018-12-17T01:35:36.590Z,0
2018-12-17T01:36:38.609Z,0
2018-12-17T01:37:40.621Z,0
2018-12-17T01:38:42.661Z,0
2018-12-17T01:39:44.678Z,0
2018-12-17T01:40:46.702Z,0
2018-12-17T01:41:49.105Z,0
2018-12-17T01:42:51.423Z,0
2018-12-17T01:43:53.439Z,0
2018-12-17T01:44:55.454Z,0
2018-12-17T01:45:57.517Z,0
2018-12-17T01:46:59.536Z,0
2018-12-17T01:48:01.570Z,0
2018-12-17T01:49:03.591Z,0
2018-12-17T01:50:05.610Z,0
2018-12-17T01:51:07.626Z,0
2018-12-17T01:52:09.653Z,0
2018-12-17T01:53:11.673Z,0
2018-12-17T01:54:13.702Z,0
2018-12-17T01:55:15.721Z,0
2018-12-17T01:56:17.727Z,0
2018-12-17T01:57:19.753Z,0
2018-12-17T01:58:21.768Z,0
2018-12-17T01:59:31.143Z,0
2018-12-17T02:00:33.160Z,0
2018-12-17T02:01:35.179Z,0
2018-12-17T02:02:37.591Z,0
2018-12-17T02:03:39.605Z,0
2018-12-17T02:04:41.625Z,0
2018-12-17T02:05:43.643Z,0
2018-12-17T02:06:45.668Z,0
2018-12-17T02:07:47.677Z,0
2018-12-17T02:08:49.707Z,0
2018-12-17T02:09:51.806Z,0
2018-12-17T02:10:54.210Z,0
2018-12-17T02:11:56.250Z,0
2018-12-17T02:12:58.259Z,0
2018-12-17T02:14:00.276Z,0
2018-12-17T02:15:02.286Z,0
2018-12-17T02:16:04.982Z,0
2018-12-17T02:17:07.328Z,0
2018-12-17T02:18:09.638Z,0
2018-12-17T02:19:11.666Z,0
2018-12-17T02:20:13.769Z,0
2018-12-17T02:21:15.801Z,0
2018-12-17T02:22:17.821Z,0
2018-12-17T02:23:20.144Z,0
2018-12-17T02:24:22.163Z,0
2018-12-17T02:25:24.255Z,0
2018-12-17T02:26:26.272Z,0
2018-12-17T02:27:28.303Z,0
2018-12-17T02:28:36.043Z,0
2018-12-17T02:29:38.380Z,0
2018-12-17T02:30:40.685Z,0
2018-12-17T02:31:43.021Z,0
2018-12-17T02:32:45.050Z,0
2018-12-17T02:33:47.077Z,0
2018-12-17T02:34:49.165Z,0
2018-12-17T02:35:51.226Z,0
2018-12-17T02:36:53.508Z,0
2018-12-17T02:37:55.533Z,0
2018-12-17T02:38:57.551Z,0
2018-12-17T02:39:59.575Z,0
2018-12-17T02:41:01.593Z,0
2018-12-17T02:42:03.639Z,0
2018-12-17T02:43:05.654Z,0
2018-12-17T02:44:07.668Z,0
2018-12-17T02:45:09.704Z,0
2018-12-17T02:46:11.738Z,0
2018-12-17T02:47:14.054Z,0
2018-12-17T02:48:16.082Z,0
2018-12-17T02:49:18.192Z,0
2018-12-17T02:50:20.203Z,0
2018-12-17T02:51:22.630Z,0
2018-12-17T02:52:24.666Z,0
2018-12-17T02:53:27.365Z,0
2018-12-17T02:54:29.402Z,0
2018-12-17T02:55:31.706Z,0
2018-12-17T02:56:34.090Z,0
2018-12-17T02:57:36.417Z,0
2018-12-17T02:58:43.929Z,0
2018-12-17T02:59:46.157Z,0
2018-12-17T03:00:48.493Z,0
2018-12-17T03:01:50.516Z,0
2018-12-17T03:02:52.908Z,0
2018-12-17T03:03:54.963Z,0
2018-12-17T03:04:57.371Z,0
2018-12-17T03:05:59.971Z,0
2018-12-17T03:07:02.006Z,0
2018-12-17T03:08:04.307Z,0
2018-12-17T03:09:06.609Z,0
2018-12-17T03:10:09.241Z,0
2018-12-17T03:11:11.265Z,0
2018-12-17T03:12:13.281Z,0
2018-12-17T03:13:15.422Z,0
2018-12-17T03:14:17.848Z,0
2018-12-17T03:15:20.171Z,0
2018-12-17T03:16:22.472Z,0
2018-12-17T03:17:24.493Z,0
2018-12-17T03:18:26.528Z,0
2018-12-17T03:19:28.545Z,0
2018-12-17T03:20:30.846Z,0
2018-12-17T03:21:32.865Z,0
2018-12-17T03:22:34.975Z,0
2018-12-17T03:23:37.271Z,0
2018-12-17T03:24:39.576Z,0
2018-12-17T03:25:41.907Z,0
2018-12-17T03:26:44.198Z,0
2018-12-17T03:27:46.227Z,0
2018-12-17T03:28:51.501Z,0
2018-12-17T03:29:54.042Z,0
2018-12-17T03:30:56.065Z,0
2018-12-17T03:31:58.267Z,0
2018-12-17T03:33:00.688Z,0
2018-12-17T03:34:03.590Z,0
2018-12-17T03:35:05.924Z,0
2018-12-17T03:36:07.950Z,0
2018-12-17T03:37:09.969Z,0
2018-12-17T03:38:12.658Z,0
2018-12-17T03:39:14.675Z,0
2018-12-17T03:40:17.018Z,0
2018-12-17T03:41:19.041Z,0
2018-12-17T03:42:21.082Z,0
2018-12-17T03:43:23.425Z,0
2018-12-17T03:44:25.437Z,0
2018-12-17T03:45:27.841Z,0
2018-12-17T03:46:29.855Z,0
2018-12-17T03:47:31.892Z,0
2018-12-17T03:48:34.289Z,0
2018-12-17T03:49:36.317Z,0
2018-12-17T03:50:38.737Z,0
2018-12-17T03:51:40.740Z,0
2018-12-17T03:52:42.778Z,0
2018-12-17T03:53:44.806Z,0
2018-12-17T03:54:47.150Z,0
2018-12-17T03:55:49.163Z,0
2018-12-17T03:56:51.195Z,0
2018-12-17T03:57:53.214Z,0
2018-12-17T03:58:59.143Z,0
2018-12-17T04:00:01.777Z,0
2018-12-17T04:01:03.793Z,0
2018-12-17T04:02:05.823Z,0
2018-12-17T04:03:07.871Z,0
2018-12-17T04:04:10.198Z,0
2018-12-17T04:05:12.902Z,0
2018-12-17T04:06:14.929Z,0
2018-12-17T04:07:16.950Z,0
2018-12-17T04:08:18.963Z,0
2018-12-17T04:09:21.288Z,0
2018-12-17T04:10:23.602Z,0
2018-12-17T04:11:25.618Z,0
2018-12-17T04:12:27.937Z,0
2018-12-17T04:13:29.951Z,0
2018-12-17T04:14:31.985Z,0
2018-12-17T04:15:34.020Z,0
2018-12-17T04:16:36.035Z,0
2018-12-17T04:17:38.072Z,0
2018-12-17T04:18:40.091Z,0
2018-12-17T04:19:42.131Z,0
2018-12-17T04:20:44.137Z,0
2018-12-17T04:21:46.168Z,0
2018-12-17T04:22:48.224Z,0
2018-12-17T04:23:50.543Z,0
2018-12-17T04:24:52.579Z,0
2018-12-17T04:25:54.593Z,0
2018-12-17T04:26:56.615Z,0
2018-12-17T04:27:59.024Z,0
2018-12-17T04:29:06.689Z,0
2018-12-17T04:30:09.448Z,0
2018-12-17T04:31:11.476Z,0
2018-12-17T04:32:13.487Z,0
2018-12-17T04:33:15.529Z,0
2018-12-17T04:34:17.923Z,0
2018-12-17T04:35:19.951Z,0
2018-12-17T04:36:21.991Z,0
2018-12-17T04:37:24.016Z,0
2018-12-17T04:38:26.031Z,0
2018-12-17T04:39:28.058Z,0
2018-12-17T04:40:30.117Z,0
2018-12-17T04:41:32.426Z,0
2018-12-17T04:42:34.465Z,0
2018-12-17T04:43:36.486Z,0
2018-12-17T04:44:38.783Z,0
2018-12-17T04:45:40.896Z,0
2018-12-17T04:46:43.298Z,0
2018-12-17T04:47:45.701Z,0
2018-12-17T04:48:47.728Z,0
2018-12-17T04:49:50.417Z,0
2018-12-17T04:50:52.461Z,0
2018-12-17T04:51:54.877Z,0
2018-12-17T04:52:57.186Z,0
2018-12-17T04:53:59.583Z,0
2018-12-17T04:55:01.613Z,0
2018-12-17T04:56:03.640Z,0
2018-12-17T04:57:05.667Z,0
2018-12-17T04:58:07.719Z,0
2018-12-17T04:59:14.475Z,0
2018-12-17T05:00:17.148Z,0
2018-12-17T05:01:19.242Z,0
2018-12-17T05:02:21.286Z,0
2018-12-17T05:03:23.309Z,0
2018-12-17T05:04:25.327Z,0
2018-12-17T05:05:27.355Z,0
2018-12-17T05:06:29.649Z,0
2018-12-17T05:07:31.789Z,0
2018-12-17T05:08:34.090Z,0
2018-12-17T05:09:36.503Z,0
2018-12-17T05:10:38.907Z,0
2018-12-17T05:11:41.002Z,0
2018-12-17T05:12:43.028Z,0
2018-12-17T05:13:45.124Z,0
2018-12-17T05:14:47.435Z,0
2018-12-17T05:15:50.155Z,0
2018-12-17T05:16:52.754Z,0
2018-12-17T05:17:54.764Z,0
2018-12-17T05:18:56.809Z,0
2018-12-17T05:19:58.843Z,0
2018-12-17T05:21:01.221Z,0
2018-12-17T05:22:03.258Z,0
2018-12-17T05:23:05.268Z,0
2018-12-17T05:24:07.294Z,0
2018-12-17T05:25:09.632Z,0
2018-12-17T05:26:11.990Z,0
2018-12-17T05:27:13.999Z,0
2018-12-17T05:28:16.033Z,0
2018-12-17T05:29:21.492Z,0
2018-12-17T05:30:23.718Z,0
2018-12-17T05:31:25.761Z,0
2018-12-17T05:32:28.053Z,0
2018-12-17T05:33:30.073Z,0
2018-12-17T05:34:32.104Z,0
2018-12-17T05:35:34.447Z,0
2018-12-17T05:36:36.748Z,0
2018-12-17T05:37:39.157Z,0
2018-12-17T05:38:41.195Z,0
2018-12-17T05:39:43.589Z,0
2018-12-17T05:40:45.622Z,0
2018-12-17T05:41:47.942Z,0
2018-12-17T05:42:49.962Z,0
2018-12-17T05:43:51.989Z,0
2018-12-17T05:44:54.312Z,0
2018-12-17T05:45:56.331Z,0
2018-12-17T05:46:58.924Z,0
2018-12-17T05:48:00.946Z,0
2018-12-17T05:49:03.676Z,0
2018-12-17T05:50:05.982Z,0
2018-12-17T05:51:08.393Z,0
2018-12-17T05:52:10.444Z,0
2018-12-17T05:53:12.471Z,0
2018-12-17T05:54:14.598Z,0
2018-12-17T05:55:16.695Z,0
2018-12-17T05:56:18.703Z,0
2018-12-17T05:57:20.735Z,0
2018-12-17T05:58:23.149Z,0
2018-12-17T05:59:28.517Z,0
2018-12-17T06:00:30.732Z,0
2018-12-17T06:01:32.760Z,0
2018-12-17T06:02:35.075Z,0
2018-12-17T06:03:37.081Z,0
2018-12-17T06:04:39.405Z,0
2018-12-17T06:05:41.806Z,0
2018-12-17T06:06:44.107Z,0
2018-12-17T06:07:46.526Z,0
2018-12-17T06:08:48.558Z,0
2018-12-17T06:09:50.648Z,0
2018-12-17T06:10:52.667Z,0
2018-12-17T06:11:54.691Z,0
2018-12-17T06:12:56.691Z,0
2018-12-17T06:13:58.724Z,0
2018-12-17T06:15:00.745Z,0
2018-12-17T06:16:03.043Z,0
2018-12-17T06:17:05.060Z,0
2018-12-17T06:18:07.083Z,0
2018-12-17T06:19:09.111Z,0
2018-12-17T06:20:11.138Z,0
2018-12-17T06:21:13.163Z,0
2018-12-17T06:22:15.170Z,0
2018-12-17T06:23:17.864Z,0
2018-12-17T06:24:19.887Z,0
2018-12-17T06:25:21.890Z,0
2018-12-17T06:26:24.000Z,0
2018-12-17T06:27:26.408Z,0
2018-12-17T06:28:28.803Z,0
2018-12-17T06:29:35.480Z,0
2018-12-17T06:30:37.988Z,0
2018-12-17T06:31:40.012Z,0
2018-12-17T06:32:42.311Z,0
2018-12-17T06:33:44.345Z,0
2018-12-17T06:34:46.430Z,0
2018-12-17T06:35:48.450Z,0
2018-12-17T06:36:50.480Z,0
2018-12-17T06:37:52.779Z,0
2018-12-17T06:38:54.820Z,0
2018-12-17T06:39:56.855Z,0
2018-12-17T06:40:58.873Z,0
2018-12-17T06:42:01.290Z,0
2018-12-17T06:43:03.603Z,0
2018-12-17T06:44:05.621Z,0
2018-12-17T06:45:07.635Z,0
2018-12-17T06:46:09.679Z,0
2018-12-17T06:47:11.686Z,0
2018-12-17T06:48:17.000Z,0
2018-12-17T06:49:19.406Z,0
2018-12-17T06:50:21.429Z,4
2018-12-17T06:51:23.445Z,4
2018-12-17T06:52:25.469Z,0
2018-12-17T06:53:27.477Z,4
2018-12-17T06:54:29.501Z,4
2018-12-17T06:55:31.532Z,4
2018-12-17T06:56:33.565Z,8
2018-12-17T06:57:35.584Z,8
2018-12-17T06:58:37.616Z,8
2018-12-17T06:59:42.761Z,8
2018-12-17T07:00:44.939Z,8
2018-12-17T07:01:46.958Z,8
2018-12-17T07:02:49.283Z,12
2018-12-17T07:03:51.300Z,12
2018-12-17T07:04:53.312Z,16
2018-12-17T07:05:55.331Z,12
2018-12-17T07:06:57.361Z,16
2018-12-17T07:07:59.372Z,20
2018-12-17T07:09:01.395Z,20
2018-12-17T07:10:03.428Z,24
2018-12-17T07:11:05.520Z,28
2018-12-17T07:12:07.561Z,28
2018-12-17T07:13:09.858Z,32
2018-12-17T07:14:11.885Z,36
2018-12-17T07:15:14.279Z,44
2018-12-17T07:16:16.305Z,40
2018-12-17T07:17:18.335Z,48
2018-12-17T07:18:20.343Z,48
2018-12-17T07:19:22.389Z,60
2018-12-17T07:20:24.464Z,68
2018-12-17T07:21:27.155Z,76
2018-12-17T07:22:29.191Z,84
2018-12-17T07:23:31.493Z,96
2018-12-17T07:24:33.515Z,100
2018-12-17T07:25:35.538Z,100
2018-12-17T07:26:37.633Z,104
2018-12-17T07:27:39.655Z,112
2018-12-17T07:28:41.992Z,124
2018-12-17T07:29:49.662Z,144
2018-12-17T07:30:51.973Z,164
2018-12-17T07:31:54.008Z,184
2018-12-17T07:32:56.320Z,204
2018-12-17T07:33:58.340Z,220
2018-12-17T07:35:00.754Z,224
2018-12-17T07:36:02.831Z,224
2018-12-17T07:37:04.855Z,232
2018-12-17T07:38:06.879Z,252
2018-12-17T07:39:08.908Z,272
2018-12-17T07:40:10.928Z,296
2018-12-17T07:41:13.225Z,316
2018-12-17T07:42:15.526Z,340
2018-12-17T07:43:17.556Z,368
2018-12-17T07:44:19.561Z,376
2018-12-17T07:45:21.585Z,372
2018-12-17T07:46:23.896Z,376
2018-12-17T07:47:25.922Z,392
2018-12-17T07:48:27.938Z,412
2018-12-17T07:49:29.963Z,420
2018-12-17T07:50:31.982Z,396
2018-12-17T07:51:34.009Z,384
2018-12-17T07:52:36.046Z,400
2018-12-17T07:53:38.063Z,408
2018-12-17T07:54:40.087Z,420
2018-12-17T07:55:42.119Z,428
2018-12-17T07:56:44.137Z,440
2018-12-17T07:57:46.149Z,460
2018-12-17T07:58:48.166Z,476
2018-12-17T07:59:56.487Z,480
2018-12-17T08:00:59.210Z,460
2018-12-17T08:02:01.246Z,484
2018-12-17T08:03:03.310Z,524
2018-12-17T08:04:05.603Z,488
2018-12-17T08:05:08.380Z,440
2018-12-17T08:06:10.392Z,436
2018-12-17T08:07:12.714Z,448
2018-12-17T08:08:14.747Z,496
2018-12-17T08:09:16.759Z,576
2018-12-17T08:10:19.069Z,664
2018-12-17T08:11:21.104Z,712
2018-12-17T08:12:23.150Z,748
2018-12-17T08:13:25.629Z,800
2018-12-17T08:14:27.715Z,828
2018-12-17T08:15:30.120Z,836
2018-12-17T08:16:32.181Z,884
2018-12-17T08:17:34.198Z,912
2018-12-17T08:18:36.234Z,904
2018-12-17T08:19:38.632Z,808
2018-12-17T08:20:41.048Z,724
2018-12-17T08:21:43.059Z,668
2018-12-17T08:22:45.088Z,668
2018-12-17T08:23:47.384Z,724
2018-12-17T08:24:49.400Z,780
2018-12-17T08:25:52.258Z,836
2018-12-17T08:26:54.268Z,864
2018-12-17T08:27:56.294Z,856
2018-12-17T08:28:58.714Z,836
2018-12-17T08:30:03.973Z,812
2018-12-17T08:31:06.253Z,824
2018-12-17T08:32:08.274Z,904
2018-12-17T08:33:10.580Z,952
2018-12-17T08:34:12.603Z,920
2018-12-17T08:35:14.633Z,820
2018-12-17T08:36:16.943Z,788
2018-12-17T08:37:18.960Z,800
2018-12-17T08:38:21.003Z,816
2018-12-17T08:39:23.068Z,864
2018-12-17T08:40:25.096Z,904
2018-12-17T08:41:27.123Z,1000
2018-12-17T08:42:29.129Z,1168
2018-12-17T08:43:31.152Z,1260
2018-12-17T08:44:33.564Z,1272
2018-12-17T08:45:35.598Z,1192
2018-12-17T08:46:37.648Z,1160
2018-12-17T08:47:39.960Z,1236
2018-12-17T08:48:41.988Z,1288
2018-12-17T08:49:44.278Z,1336
2018-12-17T08:50:46.311Z,1388
2018-12-17T08:51:48.325Z,1504
2018-12-17T08:52:50.422Z,1692
2018-12-17T08:53:53.139Z,1792
2018-12-17T08:54:55.539Z,1848
2018-12-17T08:55:57.555Z,1820
2018-12-17T08:56:59.580Z,1768
2018-12-17T08:58:01.659Z,1756
2018-12-17T08:59:04.871Z,1864
2018-12-17T09:00:10.952Z,2012
2018-12-17T09:01:13.299Z,2048
2018-12-17T09:02:15.388Z,2012
2018-12-17T09:03:17.410Z,2096
2018-12-17T09:04:19.442Z,2092
2018-12-17T09:05:21.479Z,1988
2018-12-17T09:06:23.502Z,1820
2018-12-17T09:07:25.522Z,1812
2018-12-17T09:08:27.599Z,1948
2018-12-17T09:09:29.619Z,2068
2018-12-17T09:10:31.935Z,2152
2018-12-17T09:11:33.946Z,2224
2018-12-17T09:12:35.979Z,2292
2018-12-17T09:13:38.002Z,2184
2018-12-17T09:14:40.023Z,2020
2018-12-17T09:15:42.065Z,2048
2018-12-17T09:16:44.081Z,2176
2018-12-17T09:17:46.098Z,2188
2018-12-17T09:18:48.130Z,2236
2018-12-17T09:19:50.241Z,2252
2018-12-17T09:20:52.256Z,2312
2018-12-17T09:21:54.278Z,2288
2018-12-17T09:22:56.306Z,2324
2018-12-17T09:23:58.314Z,2384
2018-12-17T09:25:00.352Z,2256
2018-12-17T09:26:02.380Z,2204
2018-12-17T09:27:04.423Z,2172
2018-12-17T09:28:06.435Z,2348
2018-12-17T09:29:08.747Z,2468
2018-12-17T09:30:10.770Z,2540
2018-12-17T09:31:20.392Z,2548
2018-12-17T09:32:22.430Z,2552
2018-12-17T09:33:24.834Z,2608
2018-12-17T09:34:26.849Z,2704
2018-12-17T09:35:28.867Z,2740
2018-12-17T09:36:30.886Z,2648
2018-12-17T09:37:32.914Z,2532
2018-12-17T09:38:34.944Z,2628
2018-12-17T09:39:36.980Z,2860
2018-12-17T09:40:39.002Z,2892
2018-12-17T09:41:41.293Z,2996
2018-12-17T09:42:43.978Z,3148
2018-12-17T09:43:46.007Z,3244
2018-12-17T09:44:48.023Z,3204
2018-12-17T09:45:50.434Z,3052
2018-12-17T09:46:52.459Z,3000
2018-12-17T09:47:54.860Z,3092
2018-12-17T09:48:57.179Z,3292
2018-12-17T09:49:59.200Z,3212
2018-12-17T09:51:01.228Z,3228
2018-12-17T09:52:03.314Z,3180
2018-12-17T09:53:05.743Z,3060
2018-12-17T09:54:07.763Z,3124
2018-12-17T09:55:10.065Z,3076
2018-12-17T09:56:12.094Z,2864
2018-12-17T09:57:14.099Z,2828
2018-12-17T09:58:16.133Z,2868
2018-12-17T09:59:18.150Z,3044
2018-12-17T10:00:25.298Z,3252
2018-12-17T10:01:28.086Z,3032
2018-12-17T10:02:30.122Z,3004
2018-12-17T10:03:32.147Z,3084
2018-12-17T10:04:34.452Z,3076
2018-12-17T10:05:36.532Z,2772
2018-12-17T10:06:38.556Z,2716
2018-12-17T10:07:40.585Z,2716
2018-12-17T10:08:42.631Z,3056
2018-12-17T10:09:44.652Z,3524
2018-12-17T10:10:46.680Z,3452
2018-12-17T10:11:48.704Z,3256
2018-12-17T10:12:50.715Z,3168
2018-12-17T10:13:53.307Z,3272
2018-12-17T10:14:55.337Z,3252
2018-12-17T10:15:57.362Z,3192
2018-12-17T10:16:59.380Z,3016
2018-12-17T10:18:01.692Z,2892
2018-12-17T10:19:03.716Z,3116
2018-12-17T10:20:05.740Z,3436
2018-12-17T10:21:07.836Z,3348
2018-12-17T10:22:10.125Z,3140
2018-12-17T10:23:12.204Z,3268
2018-12-17T10:24:14.228Z,3540
2018-12-17T10:25:16.259Z,3612
2018-12-17T10:26:18.565Z,3488
2018-12-17T10:27:20.595Z,3488
2018-12-17T10:28:22.900Z,3568
2018-12-17T10:29:24.985Z,3660
2018-12-17T10:30:32.410Z,3736
2018-12-17T10:31:34.779Z,3504
2018-12-17T10:32:36.800Z,3388
2018-12-17T10:33:38.818Z,3532
2018-12-17T10:34:40.878Z,3424
2018-12-17T10:35:43.209Z,3208
2018-12-17T10:36:45.232Z,3476
2018-12-17T10:37:47.262Z,3644
2018-12-17T10:38:49.267Z,3424
2018-12-17T10:39:51.587Z,3504
2018-12-17T10:40:53.612Z,3900
2018-12-17T10:41:55.634Z,3748
2018-12-17T10:42:57.656Z,3568
2018-12-17T10:43:59.776Z,3688
2018-12-17T10:45:01.826Z,3880
2018-12-17T10:46:04.149Z,3796
2018-12-17T10:47:06.174Z,3600
2018-12-17T10:48:08.466Z,3524
2018-12-17T10:49:10.489Z,3520
2018-12-17T10:50:12.507Z,3668
2018-12-17T10:51:14.927Z,3960
2018-12-17T10:52:17.237Z,4044
2018-12-17T10:53:19.263Z,3908
2018-12-17T10:54:21.688Z,3784
2018-12-17T10:55:27.707Z,3968
2018-12-17T10:56:30.343Z,4124
2018-12-17T10:57:40.949Z,4316
2018-12-17T10:58:43.054Z,4312
2018-12-17T10:59:45.066Z,4180
2018-12-17T11:00:47.100Z,4116
2018-12-17T11:01:49.500Z,4112
2018-12-17T11:02:51.518Z,4340
2018-12-17T11:03:53.855Z,4228
2018-12-17T11:04:55.877Z,4136
2018-12-17T11:05:58.177Z,4092
2018-12-17T11:07:00.194Z,4028
2018-12-17T11:08:02.512Z,4168
2018-12-17T11:09:04.827Z,4316
2018-12-17T11:10:06.847Z,4100
2018-12-17T11:11:08.873Z,3400
2018-12-17T11:12:10.979Z,3200
2018-12-17T11:13:13.044Z,3076
2018-12-17T11:14:15.065Z,2932
2018-12-17T11:15:17.074Z,3180
2018-12-17T11:16:19.090Z,3356
2018-12-17T11:17:21.126Z,3128
2018-12-17T11:18:23.149Z,3168
2018-12-17T11:19:25.583Z,3168
2018-12-17T11:20:27.599Z,3424
2018-12-17T11:21:29.632Z,3496
2018-12-17T11:22:31.940Z,3492
2018-12-17T11:23:33.972Z,3812
2018-12-17T11:24:36.618Z,4592
2018-12-17T11:25:38.731Z,4700
2018-12-17T11:26:40.757Z,5072
2018-12-17T11:27:42.776Z,5072
2018-12-17T11:28:44.815Z,4864
2018-12-17T11:29:46.836Z,4752
2018-12-17T11:30:48.856Z,4496
2018-12-17T11:31:50.879Z,4448
2018-12-17T11:32:52.964Z,4368
2018-12-17T11:33:54.987Z,4064
2018-12-17T11:34:57.013Z,4228
2018-12-17T11:35:59.049Z,4496
2018-12-17T11:37:01.066Z,4272
2018-12-17T11:38:03.112Z,4332
2018-12-17T11:39:05.202Z,4520
2018-12-17T11:40:07.310Z,4652
2018-12-17T11:41:09.326Z,4952
2018-12-17T11:42:11.356Z,5252
2018-12-17T11:43:13.658Z,5088
2018-12-17T11:44:15.679Z,4924
2018-12-17T11:45:17.719Z,4976
2018-12-17T11:46:19.737Z,4988
2018-12-17T11:47:22.043Z,5080
2018-12-17T11:48:24.075Z,5144
2018-12-17T11:49:26.106Z,4936
2018-12-17T11:50:28.123Z,4720
2018-12-17T11:51:30.429Z,4568
2018-12-17T11:52:32.456Z,4908
2018-12-17T11:53:35.150Z,4952
2018-12-17T11:54:37.182Z,5560
2018-12-17T11:55:39.202Z,7172
2018-12-17T11:56:41.511Z,6536
2018-12-17T11:57:44.225Z,6336
2018-12-17T11:58:46.242Z,5560
2018-12-17T11:59:48.267Z,4288
2018-12-17T12:00:53.609Z,4068
2018-12-17T12:01:56.587Z,4156
2018-12-17T12:02:59.168Z,4176
2018-12-17T12:04:01.367Z,3988
2018-12-17T12:05:03.398Z,4092
2018-12-17T12:06:05.428Z,4652
2018-12-17T12:07:15.391Z,4460
2018-12-17T12:08:17.413Z,3844
2018-12-17T12:09:19.438Z,3776
2018-12-17T12:10:21.447Z,4020
2018-12-17T12:11:24.175Z,3796
2018-12-17T12:12:26.227Z,3412
2018-12-17T12:13:28.261Z,3392
2018-12-17T12:14:30.568Z,3308
2018-12-17T12:15:32.648Z,3204
2018-12-17T12:16:34.672Z,3244
2018-12-17T12:17:36.699Z,3224
2018-12-17T12:18:38.743Z,3280
2018-12-17T12:19:40.757Z,3364
2018-12-17T12:20:42.777Z,3376
2018-12-17T12:21:44.865Z,3300
2018-12-17T12:22:47.303Z,2992
2018-12-17T12:23:49.327Z,2640
2018-12-17T12:24:51.649Z,2628
2018-12-17T12:25:53.663Z,2712
2018-12-17T12:26:55.685Z,2824
2018-12-17T12:27:57.996Z,2828
2018-12-17T12:29:00.018Z,2808
2018-12-17T12:30:02.078Z,2712
2018-12-17T12:31:04.704Z,2832
2018-12-17T12:32:06.726Z,2908
2018-12-17T12:33:08.749Z,2796
2018-12-17T12:34:11.065Z,2620
2018-12-17T12:35:13.141Z,2636
2018-12-17T12:36:15.169Z,2576
2018-12-17T12:37:17.482Z,2564
2018-12-17T12:38:19.516Z,2676
2018-12-17T12:39:21.529Z,2596
2018-12-17T12:40:23.569Z,2600
2018-12-17T12:41:25.597Z,2520
2018-12-17T12:42:27.610Z,2468
2018-12-17T12:43:29.632Z,2428
2018-12-17T12:44:31.668Z,2412
2018-12-17T12:45:33.701Z,2344
2018-12-17T12:46:36.011Z,2316
2018-12-17T12:47:38.411Z,2264
2018-12-17T12:48:40.439Z,2220
2018-12-17T12:49:42.459Z,2136
2018-12-17T12:50:44.540Z,2052
2018-12-17T12:51:46.577Z,1940
2018-12-17T12:52:48.593Z,1920
2018-12-17T12:53:50.903Z,1944
2018-12-17T12:54:52.943Z,1716
2018-12-17T12:55:54.964Z,1600
2018-12-17T12:56:56.984Z,1596
2018-12-17T12:58:03.485Z,1604
2018-12-17T12:59:05.996Z,1648
2018-12-17T13:00:08.019Z,1620
2018-12-17T13:01:10.060Z,1664
2018-12-17T13:02:12.371Z,1764
2018-12-17T13:03:14.385Z,1840
2018-12-17T13:04:16.421Z,1832
2018-12-17T13:05:18.722Z,1932
2018-12-17T13:06:21.060Z,2040
2018-12-17T13:07:23.093Z,1948
2018-12-17T13:08:25.098Z,1820
2018-12-17T13:09:27.134Z,1648
2018-12-17T13:10:29.169Z,1576
2018-12-17T13:11:31.226Z,1616
2018-12-17T13:12:33.244Z,1636
2018-12-17T13:13:35.282Z,1496
2018-12-17T13:14:37.307Z,1480
2018-12-17T13:15:39.404Z,1484
2018-12-17T13:16:41.487Z,1424
2018-12-17T13:17:43.502Z,1320
2018-12-17T13:18:47.207Z,1228
2018-12-17T13:19:49.233Z,1172
2018-12-17T13:20:51.265Z,1124
2018-12-17T13:21:53.282Z,992
2018-12-17T13:22:55.305Z,960
2018-12-17T13:23:57.321Z,896
2018-12-17T13:24:59.358Z,884
2018-12-17T13:26:01.373Z,872
2018-12-17T13:27:04.163Z,836
2018-12-17T13:28:06.230Z,796
2018-12-17T13:29:08.597Z,716
2018-12-17T13:30:10.632Z,736
2018-12-17T13:31:14.688Z,716
2018-12-17T13:32:16.998Z,744
2018-12-17T13:33:19.113Z,712
2018-12-17T13:34:21.951Z,724
2018-12-17T13:35:24.390Z,792
2018-12-17T13:36:27.047Z,764
2018-12-17T13:37:29.088Z,736
2018-12-17T13:38:31.106Z,728
2018-12-17T13:39:33.140Z,772
2018-12-17T13:40:35.181Z,716
2018-12-17T13:41:37.187Z,680
2018-12-17T13:42:39.215Z,640
2018-12-17T13:43:41.242Z,628
2018-12-17T13:44:43.278Z,656
2018-12-17T13:45:45.849Z,680
2018-12-17T13:46:47.882Z,680
2018-12-17T13:47:49.932Z,648
2018-12-17T13:48:51.996Z,664
2018-12-17T13:49:54.046Z,676
2018-12-17T13:50:56.740Z,656
2018-12-17T13:51:58.763Z,648
2018-12-17T13:53:00.774Z,652
2018-12-17T13:54:02.804Z,672
2018-12-17T13:55:06.950Z,700
2018-12-17T13:56:08.972Z,700
2018-12-17T13:57:11.002Z,656
2018-12-17T13:58:13.287Z,688
2018-12-17T13:59:15.321Z,632
2018-12-17T14:00:17.351Z,624
2018-12-17T14:01:21.866Z,636
2018-12-17T14:02:24.053Z,620
2018-12-17T14:03:26.094Z,548
2018-12-17T14:04:28.504Z,528
2018-12-17T14:05:30.535Z,492
2018-12-17T14:06:32.563Z,540
2018-12-17T14:07:34.571Z,520
2018-12-17T14:08:36.601Z,484
2018-12-17T14:09:38.639Z,464
2018-12-17T14:10:40.655Z,444
2018-12-17T14:11:42.681Z,428
2018-12-17T14:12:44.704Z,420
2018-12-17T14:13:46.723Z,408
2018-12-17T14:14:48.765Z,432
2018-12-17T14:15:50.788Z,416
2018-12-17T14:16:53.089Z,432
2018-12-17T14:17:55.488Z,424
2018-12-17T14:18:57.524Z,404
2018-12-17T14:19:59.541Z,392
2018-12-17T14:21:01.581Z,388
2018-12-17T14:22:03.613Z,372
2018-12-17T14:23:05.628Z,368
2018-12-17T14:24:07.664Z,372
2018-12-17T14:25:09.689Z,376
2018-12-17T14:26:12.022Z,380
2018-12-17T14:27:14.045Z,364
2018-12-17T14:28:16.077Z,364
2018-12-17T14:29:18.102Z,364
2018-12-17T14:30:20.680Z,340
2018-12-17T14:31:28.535Z,324
2018-12-17T14:32:31.005Z,304
2018-12-17T14:33:33.029Z,280
2018-12-17T14:34:35.348Z,252
2018-12-17T14:35:37.399Z,240
2018-12-17T14:36:39.416Z,232
2018-12-17T14:37:41.439Z,236